Time;durP1;ratioP1;P1;durP2;ratioP2;P2;SDS_P1;SDS_P2;PMS_P1;PMS_P2;Temp;Humidity;BMP_temperature;BMP_pressure;BME280_temperature;BME280_humidity;BME280_pressure;Samples;Min_cycle;Max_cycle;Signal;HPM_P1;HPM_P2
2022/06/23 00:00:16;;;;;;;10.50;5.20;;;;;;;;;;6176514;23;20018;-82
2022/06/23 00:02:43;;;;;;;13.52;5.68;;;;;;;;;;6149898;23;20074;-83
2022/06/23 00:05:15;;;;;;;15.45;5.60;;;;;;;;;;6175993;23;20078;-83
2022/06/23 00:07:44;;;;;;;12.00;5.00;;;;;;;;;;6176147;23;20033;-81
2022/06/23 00:10:14;;;;;;;12.93;5.07;;;;;;;;;;6175462;23;20022;-83
2022/06/23 00:12:42;;;;;;;12.68;5.18;;;;;;;;;;6175213;23;20078;-82
2022/06/23 00:15:18;;;;;;;11.65;5.43;;;;;;;;;;6173953;23;20041;-83
2022/06/23 00:17:56;;;;;;;10.45;5.07;;;;;;;;;;6174152;23;20022;-82
2022/06/23 00:20:42;;;;;;;16.98;5.15;;;;;;;;;;6175870;23;20107;-82
2022/06/23 00:23:16;;;;;;;11.18;4.97;;;;;;;;;;6175461;23;20015;-83
2022/06/23 00:25:52;;;;;;;12.35;5.20;;;;;;;;;;6149279;23;20030;-82
2022/06/23 00:28:28;;;;;;;13.35;4.88;;;;;;;;;;6176430;23;20588;-82
2022/06/23 00:31:00;;;;;;;14.52;5.68;;;;;;;;;;6175801;23;20021;-82
2022/06/23 00:33:41;;;;;;;11.30;5.35;;;;;;;;;;6175662;23;20006;-81
2022/06/23 00:36:16;;;;;;;10.93;4.63;;;;;;;;;;6175489;23;20018;-82
2022/06/23 00:38:43;;;;;;;9.63;5.18;;;;;;;;;;6174882;23;20025;-82
2022/06/23 00:41:16;;;;;;;15.75;5.05;;;;;;;;;;6174132;23;20049;-82
2022/06/23 00:43:43;;;;;;;;;;;;;;;;;;6174959;23;20018;-83
2022/06/23 00:46:18;;;;;;;13.75;5.57;;;;;;;;;;6173293;23;43417;-83
2022/06/23 00:48:54;;;;;;;10.50;5.68;;;;;;;;;;6174190;23;20026;-82
2022/06/23 00:51:26;;;;;;;14.05;6.10;;;;;;;;;;6173578;23;20026;-82
2022/06/23 00:53:56;;;;;;;10.40;5.32;;;;;;;;;;6173077;23;20030;-83
2022/06/23 00:56:38;;;;;;;13.15;6.35;;;;;;;;;;6173921;23;20026;-81
2022/06/23 00:59:11;;;;;;;14.82;6.00;;;;;;;;;;6172068;23;20022;-82
2022/06/23 01:01:39;;;;;;;10.75;5.70;;;;;;;;;;6144688;23;20026;-82
2022/06/23 01:04:24;;;;;;;10.98;6.55;;;;;;;;;;6171774;23;20053;-82
2022/06/23 01:07:01;;;;;;;14.40;6.07;;;;;;;;;;6148612;23;20022;-82
2022/06/23 01:09:34;;;;;;;13.38;6.10;;;;;;;;;;6173904;23;20105;-82
2022/06/23 01:12:04;;;;;;;13.63;6.53;;;;;;;;;;6174880;23;20086;-83
2022/06/23 01:14:34;;;;;;;10.95;5.70;;;;;;;;;;6173290;23;20060;-82
2022/06/23 01:17:09;;;;;;;11.63;5.57;;;;;;;;;;6174936;23;20033;-82
2022/06/23 01:20:02;;;;;;;10.70;6.32;;;;;;;;;;6174660;23;20137;-82
2022/06/23 01:22:29;;;;;;;12.13;6.05;;;;;;;;;;6174328;23;20180;-81
2022/06/23 01:25:20;;;;;;;8.98;5.05;;;;;;;;;;6173183;23;20834;-83
2022/06/23 01:27:52;;;;;;;10.70;5.90;;;;;;;;;;6052534;23;20051;-83
2022/06/23 01:30:21;;;;;;;11.75;5.95;;;;;;;;;;6052500;23;20508;-82
2022/06/23 01:33:07;;;;;;;13.40;6.75;;;;;;;;;;6053379;23;20038;-82
2022/06/23 01:35:41;;;;;;;10.90;5.65;;;;;;;;;;6055247;23;20093;-81
2022/06/23 01:38:17;;;;;;;11.65;6.20;;;;;;;;;;6054821;23;20110;-82
2022/06/23 01:40:49;;;;;;;10.30;6.15;;;;;;;;;;6055322;23;20841;-82
2022/06/23 01:43:16;;;;;;;13.27;6.40;;;;;;;;;;6055118;23;20019;-82
2022/06/23 01:45:54;;;;;;;15.35;6.53;;;;;;;;;;6054064;23;20043;-82
2022/06/23 01:48:51;;;;;;;10.60;6.05;;;;;;;;;;6054493;23;20019;-82
2022/06/23 01:51:19;;;;;;;15.30;6.90;;;;;;;;;;6055607;23;20024;-82
2022/06/23 01:53:46;;;;;;;14.88;6.35;;;;;;;;;;6054875;23;20020;-82
2022/06/23 01:56:31;;;;;;;10.57;6.28;;;;;;;;;;6054956;23;20008;-82
2022/06/23 01:59:13;;;;;;;18.38;6.88;;;;;;;;;;6055174;23;20064;-82
2022/06/23 02:01:51;;;;;;;10.45;6.43;;;;;;;;;;6052865;23;20028;-82
2022/06/23 02:04:22;;;;;;;11.60;6.47;;;;;;;;;;6086062;23;20873;-82
2022/06/23 02:06:53;;;;;;;11.95;6.10;;;;;;;;;;6171092;23;20048;-81
2022/06/23 02:09:24;;;;;;;14.48;6.70;;;;;;;;;;6171574;23;20040;-82
2022/06/23 02:11:52;;;;;;;14.10;7.03;;;;;;;;;;6145920;23;20032;-82
2022/06/23 02:14:29;;;;;;;12.23;7.10;;;;;;;;;;6171459;23;20021;-82
2022/06/23 02:17:09;;;;;;;13.98;7.43;;;;;;;;;;6171593;23;20089;-82
2022/06/23 02:19:40;;;;;;;12.15;6.40;;;;;;;;;;6171886;23;20030;-82
2022/06/23 02:22:13;;;;;;;13.88;7.72;;;;;;;;;;6172080;23;20795;-82
2022/06/23 02:24:40;;;;;;;;;;;;;;;;;;6173800;23;20105;-81
2022/06/23 02:27:16;;;;;;;19.10;7.10;;;;;;;;;;6146371;23;43779;-81
2022/06/23 02:29:46;;;;;;;14.90;6.47;;;;;;;;;;6174865;23;20026;-82
2022/06/23 02:32:17;;;;;;;10.73;6.45;;;;;;;;;;6173332;23;20095;-81
2022/06/23 02:34:53;;;;;;;12.60;6.95;;;;;;;;;;6147791;23;20014;-81
2022/06/23 02:37:38;;;;;;;12.23;7.00;;;;;;;;;;6176847;23;20039;-82
2022/06/23 02:40:06;;;;;;;12.57;7.38;;;;;;;;;;6176266;23;20014;-81
2022/06/23 02:42:34;;;;;;;10.93;6.97;;;;;;;;;;6173891;23;20898;-82
2022/06/23 02:45:14;;;;;;;16.52;7.57;;;;;;;;;;6172143;23;20058;-82
2022/06/23 02:47:48;;;;;;;13.10;7.70;;;;;;;;;;6175546;23;20045;-82
2022/06/23 02:50:28;;;;;;;14.90;8.30;;;;;;;;;;6149213;23;20073;-83
2022/06/23 02:53:15;;;;;;;13.93;7.93;;;;;;;;;;6175766;23;20071;-81
2022/06/23 02:55:48;;;;;;;12.07;7.70;;;;;;;;;;6177868;23;20093;-82
2022/06/23 02:58:18;;;;;;;11.03;7.23;;;;;;;;;;6178952;23;20071;-82
2022/06/23 03:00:51;;;;;;;17.10;7.43;;;;;;;;;;6153511;23;20101;-81
2022/06/23 03:03:34;;;;;;;14.70;8.20;;;;;;;;;;6151819;23;20018;-83
2022/06/23 03:06:20;;;;;;;14.80;8.10;;;;;;;;;;6175846;23;20054;-82
2022/06/23 03:09:06;;;;;;;15.32;7.72;;;;;;;;;;6176577;23;20013;-82
2022/06/23 03:11:52;;;;;;;13.15;8.18;;;;;;;;;;6176012;23;20068;-81
2022/06/23 03:14:38;;;;;;;15.88;8.27;;;;;;;;;;6176514;23;20040;-81
2022/06/23 03:17:14;;;;;;;16.63;8.98;;;;;;;;;;6177315;23;20041;-81
2022/06/23 03:19:51;;;;;;;23.33;8.48;;;;;;;;;;6177313;23;20133;-82
2022/06/23 03:22:22;;;;;;;16.63;8.68;;;;;;;;;;6179003;23;20030;-82
2022/06/23 03:24:53;;;;;;;15.80;7.68;;;;;;;;;;6179558;23;20086;-81
2022/06/23 03:27:29;;;;;;;19.00;8.40;;;;;;;;;;6179961;23;20022;-81
2022/06/23 03:29:59;;;;;;;14.90;8.50;;;;;;;;;;6181608;23;20017;-83
2022/06/23 03:32:34;;;;;;;20.02;10.32;;;;;;;;;;6183244;23;20018;-82
2022/06/23 03:35:02;;;;;;;15.65;8.30;;;;;;;;;;6182570;23;20026;-82
2022/06/23 03:37:48;;;;;;;15.38;8.20;;;;;;;;;;6156348;23;20049;-83
2022/06/23 03:43:11;;;;;;;12.35;8.00;;;;;;;;;;6178879;23;20014;-82
2022/06/23 03:46:00;;;;;;;14.07;8.20;;;;;;;;;;6178185;23;20065;-81
2022/06/23 03:48:41;;;;;;;14.85;8.10;;;;;;;;;;6177390;23;20025;-82
2022/06/23 03:51:18;;;;;;;14.45;8.40;;;;;;;;;;6151349;23;20014;-82
2022/06/23 03:53:50;;;;;;;20.67;9.18;;;;;;;;;;6177169;23;20018;-81
2022/06/23 03:56:19;;;;;;;15.48;8.23;;;;;;;;;;6177222;23;20029;-81
2022/06/23 03:58:46;;;;;;;16.95;8.23;;;;;;;;;;6177894;23;20022;-82
2022/06/23 04:01:14;;;;;;;13.25;8.55;;;;;;;;;;6177517;23;20165;-82
2022/06/23 04:03:47;;;;;;;14.68;8.50;;;;;;;;;;6151973;23;20066;-81
2022/06/23 04:06:22;;;;;;;14.82;8.35;;;;;;;;;;6177378;23;20870;-82
2022/06/23 04:08:54;;;;;;;23.10;8.93;;;;;;;;;;6176405;23;20018;-83
2022/06/23 04:14:11;;;;;;;19.80;9.43;;;;;;;;;;6178721;23;20025;-82
2022/06/23 04:16:45;;;;;;;14.88;8.85;;;;;;;;;;6179003;23;20022;-83
2022/06/23 04:19:24;;;;;;;16.63;8.60;;;;;;;;;;6178476;23;20068;-82
2022/06/23 04:21:57;;;;;;;13.90;8.30;;;;;;;;;;6179511;23;20018;-82
2022/06/23 04:24:28;;;;;;;18.50;8.93;;;;;;;;;;6181203;23;20018;-81
2022/06/23 04:26:58;;;;;;;12.75;8.45;;;;;;;;;;6154757;23;20041;-82
2022/06/23 04:29:34;;;;;;;16.10;9.13;;;;;;;;;;6180403;23;20014;-82
2022/06/23 04:32:14;;;;;;;16.92;8.82;;;;;;;;;;6154155;23;20750;-82
2022/06/23 04:34:51;;;;;;;15.70;8.73;;;;;;;;;;6180780;23;20026;-82
2022/06/23 04:37:25;;;;;;;14.98;8.90;;;;;;;;;;6181435;23;20053;-82
2022/06/23 04:39:59;;;;;;;16.23;9.25;;;;;;;;;;6154935;23;20022;-82
2022/06/23 04:42:27;;;;;;;17.45;8.45;;;;;;;;;;6155089;23;20032;-82
2022/06/23 04:44:57;;;;;;;18.17;9.13;;;;;;;;;;6180579;23;20081;-81
2022/06/23 04:47:29;;;;;;;20.08;8.63;;;;;;;;;;6179715;23;20026;-82
2022/06/23 04:50:12;;;;;;;16.45;8.88;;;;;;;;;;6181337;23;20026;-83
2022/06/23 04:52:44;;;;;;;15.07;8.18;;;;;;;;;;6181083;23;20029;-81
2022/06/23 04:55:19;;;;;;;14.53;8.90;;;;;;;;;;6180861;23;20033;-83
2022/06/23 04:57:49;;;;;;;14.48;8.35;;;;;;;;;;6181042;23;20194;-82
2022/06/23 05:00:39;;;;;;;15.90;8.35;;;;;;;;;;6181583;23;20018;-82
2022/06/23 05:03:21;;;;;;;16.98;10.07;;;;;;;;;;6166387;23;20026;-83
2022/06/23 05:06:04;;;;;;;15.30;8.85;;;;;;;;;;6181698;23;20105;-83
2022/06/23 05:08:33;;;;;;;17.42;9.52;;;;;;;;;;6179065;23;20044;-82
2022/06/23 05:11:09;;;;;;;18.42;9.13;;;;;;;;;;6180385;23;20050;-82
2022/06/23 05:13:48;;;;;;;17.20;8.52;;;;;;;;;;6180069;23;20030;-82
2022/06/23 05:16:26;;;;;;;16.95;9.48;;;;;;;;;;6180102;23;20069;-83
2022/06/23 05:19:00;;;;;;;15.25;8.45;;;;;;;;;;6181159;23;20038;-82
2022/06/23 05:21:29;;;;;;;15.88;8.23;;;;;;;;;;6179032;23;20021;-82
2022/06/23 05:24:03;;;;;;;17.30;8.65;;;;;;;;;;6178190;23;20010;-82
2022/06/23 05:26:35;;;;;;;13.52;7.88;;;;;;;;;;6178599;23;20025;-83
2022/06/23 05:29:05;;;;;;;15.07;8.73;;;;;;;;;;6176963;23;20018;-82
2022/06/23 05:31:34;;;;;;;13.60;7.65;;;;;;;;;;6174497;23;20022;-82
2022/06/23 05:34:11;;;;;;;16.45;8.10;;;;;;;;;;6174086;23;20032;-83
2022/06/23 05:37:04;;;;;;;14.88;7.22;;;;;;;;;;6152388;23;20013;-82
2022/06/23 05:39:34;;;;;;;15.73;7.40;;;;;;;;;;6170369;23;20021;-82
2022/06/23 05:42:08;;;;;;;14.00;7.68;;;;;;;;;;6144502;23;20022;-81
2022/06/23 05:44:35;;;;;;;;;;;;;;;;;;6173440;23;20037;-81
2022/06/23 05:47:02;;;;;;;13.45;7.13;;;;;;;;;;6176153;23;45762;-82
2022/06/23 05:49:31;;;;;;;14.23;7.30;;;;;;;;;;6175977;23;20013;-82
2022/06/23 05:52:06;;;;;;;12.77;6.75;;;;;;;;;;6175376;23;20491;-80
2022/06/23 05:54:44;;;;;;;15.63;6.72;;;;;;;;;;6176571;23;20037;-81
2022/06/23 05:57:16;;;;;;;11.23;5.95;;;;;;;;;;6177257;23;20026;-81
2022/06/23 05:59:49;;;;;;;17.75;6.53;;;;;;;;;;6177928;23;20010;-82
2022/06/23 06:02:16;;;;;;;;;;;;;;;;;;6178450;23;20045;-81
2022/06/23 06:04:46;;;;;;;20.15;6.28;;;;;;;;;;6177151;23;44687;-81
2022/06/23 06:07:18;;;;;;;9.73;6.07;;;;;;;;;;6177795;23;20022;-83
2022/06/23 06:09:46;;;;;;;14.75;6.00;;;;;;;;;;6175949;23;20033;-81
2022/06/23 06:12:15;;;;;;;10.20;5.50;;;;;;;;;;6174790;23;20491;-81
2022/06/23 06:15:04;;;;;;;14.55;5.65;;;;;;;;;;6176236;23;20855;-81
2022/06/23 06:17:32;;;;;;;10.57;5.75;;;;;;;;;;6177321;23;20018;-81
2022/06/23 06:20:04;;;;;;;12.25;5.75;;;;;;;;;;6177899;23;20074;-81
2022/06/23 06:22:31;;;;;;;10.27;5.28;;;;;;;;;;6150482;23;20025;-82
2022/06/23 06:24:59;;;;;;;8.57;5.30;;;;;;;;;;6171830;23;20429;-83
2022/06/23 06:27:27;;;;;;;11.68;5.68;;;;;;;;;;6170553;23;20551;-81
2022/06/23 06:29:55;;;;;;;10.73;4.97;;;;;;;;;;6171487;23;20077;-81
2022/06/23 06:32:22;;;;;;;9.90;5.28;;;;;;;;;;6175488;23;20049;-81
2022/06/23 06:34:55;;;;;;;15.02;5.40;;;;;;;;;;6175163;23;20006;-82
2022/06/23 06:37:24;;;;;;;8.50;5.07;;;;;;;;;;6175316;23;20022;-81
2022/06/23 06:39:54;;;;;;;8.75;4.70;;;;;;;;;;6173458;23;20666;-81
2022/06/23 06:42:27;;;;;;;8.45;4.38;;;;;;;;;;6172267;23;20030;-82
2022/06/23 06:44:56;;;;;;;6.95;4.60;;;;;;;;;;6171862;23;20026;-82
2022/06/23 06:47:24;;;;;;;11.43;5.22;;;;;;;;;;6172904;23;20025;-81
2022/06/23 06:49:58;;;;;;;11.80;4.97;;;;;;;;;;6149015;23;20086;-81
2022/06/23 06:52:25;;;;;;;;;;;;;;;;;;6172956;23;20079;-81
2022/06/23 06:54:58;;;;;;;14.73;4.47;;;;;;;;;;6171609;23;44417;-81
2022/06/23 06:57:53;;;;;;;12.68;5.13;;;;;;;;;;6174256;23;20046;-81
2022/06/23 07:00:21;;;;;;;13.68;4.78;;;;;;;;;;6176276;23;20014;-83
2022/06/23 07:02:50;;;;;;;17.35;5.90;;;;;;;;;;6173014;23;20022;-82
2022/06/23 07:05:29;;;;;;;11.95;5.05;;;;;;;;;;6173000;23;20061;-81
2022/06/23 07:08:15;;;;;;;13.82;4.90;;;;;;;;;;6172240;23;20030;-81
2022/06/23 07:10:53;;;;;;;9.18;4.57;;;;;;;;;;6172513;23;20050;-81
2022/06/23 07:13:25;;;;;;;15.63;4.80;;;;;;;;;;6172215;23;20022;-81
2022/06/23 07:16:01;;;;;;;8.83;4.30;;;;;;;;;;6171956;23;20523;-81
2022/06/23 07:18:32;;;;;;;13.00;4.50;;;;;;;;;;6171566;23;20026;-81
2022/06/23 07:21:12;;;;;;;8.43;4.50;;;;;;;;;;6171336;23;20798;-81
2022/06/23 07:24:02;;;;;;;7.85;4.30;;;;;;;;;;6172652;23;20747;-81
2022/06/23 07:26:32;;;;;;;8.40;4.38;;;;;;;;;;6171136;23;20870;-81
2022/06/23 07:29:08;;;;;;;8.27;4.38;;;;;;;;;;6171038;23;20016;-82
2022/06/23 07:31:41;;;;;;;10.60;4.90;;;;;;;;;;6171892;23;20025;-81
2022/06/23 07:34:11;;;;;;;6.43;4.00;;;;;;;;;;6168410;23;20046;-81
2022/06/23 07:36:41;;;;;;;9.38;4.22;;;;;;;;;;6164413;23;20033;-83
2022/06/23 07:39:10;;;;;;;11.38;4.68;;;;;;;;;;6163780;23;20817;-82
2022/06/23 07:41:43;;;;;;;10.27;4.60;;;;;;;;;;6163749;23;20024;-81
2022/06/23 07:44:20;;;;;;;10.65;4.80;;;;;;;;;;6163944;23;20085;-81
2022/06/23 07:46:48;;;;;;;9.73;4.63;;;;;;;;;;6137944;23;20062;-81
2022/06/23 07:49:21;;;;;;;10.38;4.70;;;;;;;;;;6163767;23;20033;-82
2022/06/23 07:51:48;;;;;;;9.88;4.47;;;;;;;;;;6163325;23;20906;-81
2022/06/23 07:54:17;;;;;;;14.30;4.50;;;;;;;;;;6162867;23;20826;-81
2022/06/23 07:56:44;;;;;;;8.30;4.30;;;;;;;;;;6163082;23;20030;-81
2022/06/23 07:59:13;;;;;;;9.65;4.10;;;;;;;;;;6162972;23;20050;-81
2022/06/23 08:01:50;;;;;;;8.80;4.28;;;;;;;;;;6164358;23;20022;-81
2022/06/23 08:04:33;;;;;;;12.07;4.20;;;;;;;;;;6163540;23;20826;-82
2022/06/23 08:07:01;;;;;;;10.23;4.53;;;;;;;;;;6161312;23;20728;-82
2022/06/23 08:09:43;;;;;;;10.73;4.00;;;;;;;;;;6160082;23;20062;-81
2022/06/23 08:17:57;;;;;;;11.68;4.10;;;;;;;;;;6161138;23;20728;-81
2022/06/23 08:20:25;;;;;;;9.10;4.20;;;;;;;;;;6161076;23;20030;-81
2022/06/23 08:22:54;;;;;;;12.40;4.55;;;;;;;;;;6135038;23;20029;-80
2022/06/23 08:25:21;;;;;;;11.43;4.93;;;;;;;;;;6161194;23;20742;-81
2022/06/23 08:27:52;;;;;;;9.43;4.25;;;;;;;;;;6160562;23;20026;-81
2022/06/23 08:30:20;;;;;;;8.50;4.50;;;;;;;;;;6161099;23;20113;-81
2022/06/23 08:32:50;;;;;;;9.77;4.80;;;;;;;;;;6135274;23;20029;-81
2022/06/23 08:35:33;;;;;;;8.93;4.72;;;;;;;;;;6161959;23;20026;-81
2022/06/23 08:38:00;;;;;;;;;;;;;;;;;;6162096;23;21174;-81
2022/06/23 08:40:46;;;;;;;13.10;4.10;;;;;;;;;;6160252;23;45644;-80
2022/06/23 08:43:33;;;;;;;9.43;4.80;;;;;;;;;;6160931;23;20081;-81
2022/06/23 08:46:19;;;;;;;10.70;4.78;;;;;;;;;;6161508;23;20130;-80
2022/06/23 08:49:26;;;;;;;10.85;4.95;;;;;;;;;;6162090;23;20065;-81
2022/06/23 08:51:59;;;;;;;10.95;4.40;;;;;;;;;;6041819;23;20020;-81
2022/06/23 08:54:49;;;;;;;10.48;4.78;;;;;;;;;;6043653;23;20032;-80
2022/06/23 08:57:23;;;;;;;11.23;4.80;;;;;;;;;;6029772;23;20038;-81
2022/06/23 08:59:53;;;;;;;11.48;5.55;;;;;;;;;;6044588;23;20814;-81
2022/06/23 09:02:41;;;;;;;10.05;5.05;;;;;;;;;;6044008;23;20095;-82
2022/06/23 09:05:25;;;;;;;9.57;4.43;;;;;;;;;;6044138;23;20083;-82
2022/06/23 09:07:59;;;;;;;11.05;5.10;;;;;;;;;;6044399;23;20118;-81
2022/06/23 09:10:43;;;;;;;8.57;5.10;;;;;;;;;;6044582;23;20076;-81
2022/06/23 09:13:18;;;;;;;12.27;5.25;;;;;;;;;;6043841;23;20055;-81
2022/06/23 09:16:04;;;;;;;11.20;4.50;;;;;;;;;;6044637;23;20036;-81
2022/06/23 09:18:50;;;;;;;10.23;5.60;;;;;;;;;;6043350;23;20112;-81
2022/06/23 09:21:25;;;;;;;13.75;5.35;;;;;;;;;;6044007;23;20475;-81
2022/06/23 09:24:00;;;;;;;12.52;4.93;;;;;;;;;;6161794;23;20105;-81
2022/06/23 09:26:41;;;;;;;14.63;5.65;;;;;;;;;;6162999;23;20113;-81
2022/06/23 09:29:22;;;;;;;13.05;5.43;;;;;;;;;;6137426;23;20041;-81
2022/06/23 09:32:15;;;;;;;14.82;5.90;;;;;;;;;;6162654;23;20022;-81
2022/06/23 09:34:42;;;;;;;;;;;;;;;;;;6164425;23;20042;-81
2022/06/23 09:37:09;;;;;;;13.25;5.00;;;;;;;;;;6163535;23;44079;-81
2022/06/23 09:39:52;;;;;;;13.00;5.50;;;;;;;;;;6163487;23;20024;-81
2022/06/23 09:42:33;;;;;;;10.60;5.05;;;;;;;;;;6163282;23;20014;-81
2022/06/23 09:45:00;;;;;;;15.98;5.25;;;;;;;;;;6164160;23;20026;-81
2022/06/23 09:47:27;;;;;;;19.35;5.70;;;;;;;;;;6136770;23;20684;-81
2022/06/23 09:50:24;;;;;;;15.73;5.88;;;;;;;;;;6161970;23;20022;-81
2022/06/23 09:53:10;;;;;;;15.13;4.82;;;;;;;;;;6042323;23;20028;-81
2022/06/23 09:55:55;;;;;;;12.75;5.68;;;;;;;;;;6044574;23;20083;-82
2022/06/23 09:58:41;;;;;;;9.45;4.90;;;;;;;;;;6043488;23;20120;-82
2022/06/23 10:01:15;;;;;;;9.27;5.32;;;;;;;;;;6040795;23;20055;-82
2022/06/23 10:03:54;;;;;;;16.50;5.88;;;;;;;;;;6043077;23;20073;-81
2022/06/23 10:06:34;;;;;;;20.63;5.90;;;;;;;;;;6042227;23;20843;-81
2022/06/23 10:09:04;;;;;;;16.15;4.43;;;;;;;;;;6042701;23;20114;-81
2022/06/23 10:11:55;;;;;;;7.63;4.50;;;;;;;;;;6042589;23;20157;-81
2022/06/23 10:14:34;;;;;;;11.18;4.85;;;;;;;;;;6043044;23;20434;-81
2022/06/23 10:17:01;;;;;;;9.68;5.40;;;;;;;;;;6020240;23;20024;-82
2022/06/23 10:19:44;;;;;;;10.07;4.53;;;;;;;;;;6044133;23;20020;-82
2022/06/23 10:22:19;;;;;;;11.68;4.53;;;;;;;;;;6044214;23;20105;-82
2022/06/23 10:25:05;;;;;;;12.13;4.97;;;;;;;;;;6043253;23;20019;-82
2022/06/23 10:27:32;;;;;;;14.43;5.38;;;;;;;;;;6044826;23;20131;-81
2022/06/23 10:30:08;;;;;;;9.73;4.40;;;;;;;;;;6136855;23;20083;-82
2022/06/23 10:33:01;;;;;;;9.65;4.25;;;;;;;;;;6161791;23;20098;-81
2022/06/23 10:35:36;;;;;;;11.93;5.28;;;;;;;;;;6164073;23;20033;-81
2022/06/23 10:38:22;;;;;;;14.43;5.28;;;;;;;;;;6162346;23;20105;-81
2022/06/23 10:40:58;;;;;;;12.75;5.10;;;;;;;;;;6160515;23;20731;-81
2022/06/23 10:43:51;;;;;;;14.52;4.95;;;;;;;;;;6137718;23;20033;-81
2022/06/23 10:46:24;;;;;;;13.10;5.05;;;;;;;;;;6164131;23;20033;-81
2022/06/23 10:48:57;;;;;;;13.55;4.32;;;;;;;;;;6164812;23;20022;-81
2022/06/23 10:51:26;;;;;;;12.38;3.65;;;;;;;;;;6163933;23;20345;-81
2022/06/23 10:53:54;;;;;;;14.02;3.78;;;;;;;;;;6163471;23;20358;-82
2022/06/23 10:56:32;;;;;;;10.23;3.90;;;;;;;;;;6162692;23;20022;-82
2022/06/23 10:58:59;;;;;;;11.82;4.18;;;;;;;;;;6161673;23;20014;-82
2022/06/23 11:01:29;;;;;;;13.93;5.22;;;;;;;;;;6135211;23;20022;-82
2022/06/23 11:04:21;;;;;;;9.20;4.50;;;;;;;;;;6137229;23;20460;-82
2022/06/23 11:07:06;;;;;;;10.73;4.05;;;;;;;;;;6162168;23;20325;-82
2022/06/23 11:09:58;;;;;;;12.70;3.97;;;;;;;;;;6162244;23;20727;-82
2022/06/23 11:12:33;;;;;;;12.15;4.38;;;;;;;;;;6163025;23;20100;-82
2022/06/23 11:15:05;;;;;;;9.73;5.20;;;;;;;;;;6163399;23;20052;-82
2022/06/23 11:17:42;;;;;;;15.10;4.55;;;;;;;;;;6163940;23;20049;-81
2022/06/23 11:20:27;;;;;;;11.65;4.20;;;;;;;;;;6161608;23;20866;-82
2022/06/23 11:23:18;;;;;;;10.30;3.70;;;;;;;;;;6136442;23;20022;-82
2022/06/23 11:26:04;;;;;;;9.63;3.70;;;;;;;;;;6136793;23;20838;-81
2022/06/23 11:28:31;;;;;;;9.45;3.60;;;;;;;;;;6135859;23;20747;-82
2022/06/23 11:31:17;;;;;;;11.75;4.57;;;;;;;;;;6162654;23;20038;-82
2022/06/23 11:33:54;;;;;;;14.68;4.78;;;;;;;;;;6161475;23;20022;-82
2022/06/23 11:36:24;;;;;;;11.20;4.20;;;;;;;;;;6139257;23;20077;-82
2022/06/23 11:39:04;;;;;;;11.25;4.10;;;;;;;;;;6138676;23;20834;-82
2022/06/23 11:41:31;;;;;;;18.30;3.85;;;;;;;;;;6137469;23;20105;-82
2022/06/23 11:44:01;;;;;;;12.25;4.70;;;;;;;;;;6137824;23;20018;-82
2022/06/23 11:46:43;;;;;;;13.93;4.97;;;;;;;;;;6137644;23;20018;-82
2022/06/23 11:49:20;;;;;;;14.98;4.25;;;;;;;;;;6162525;23;20018;-81
2022/06/23 11:51:47;;;;;;;11.10;3.85;;;;;;;;;;6162824;23;20100;-81
2022/06/23 11:54:31;;;;;;;15.40;4.75;;;;;;;;;;6136398;23;20024;-82
2022/06/23 11:57:14;;;;;;;18.38;5.13;;;;;;;;;;6139086;23;20051;-82
2022/06/23 12:00:03;;;;;;;12.00;4.70;;;;;;;;;;6138579;23;20735;-83
2022/06/23 12:03:13;;;;;;;15.05;4.05;;;;;;;;;;6163681;23;20849;-82
2022/06/23 12:06:03;;;;;;;17.63;4.32;;;;;;;;;;6138522;23;20018;-82
2022/06/23 12:08:37;;;;;;;12.10;4.15;;;;;;;;;;6140767;23;20022;-81
2022/06/23 12:11:09;;;;;;;15.20;4.95;;;;;;;;;;6164562;23;20829;-82
2022/06/23 12:13:39;;;;;;;11.32;4.80;;;;;;;;;;6138446;23;20097;-83
2022/06/23 12:16:11;;;;;;;12.30;4.28;;;;;;;;;;6163784;23;20022;-82
2022/06/23 12:18:48;;;;;;;14.00;4.60;;;;;;;;;;6137583;23;20917;-82
2022/06/23 12:21:19;;;;;;;11.80;3.95;;;;;;;;;;6164801;23;20030;-82
2022/06/23 12:23:55;;;;;;;14.73;4.30;;;;;;;;;;6163378;23;20021;-82
2022/06/23 12:26:31;;;;;;;15.48;4.40;;;;;;;;;;6138780;23;20025;-82
2022/06/23 12:29:09;;;;;;;14.18;4.10;;;;;;;;;;6164321;23;20028;-81
2022/06/23 12:31:55;;;;;;;14.98;4.18;;;;;;;;;;6138460;23;20025;-81
2022/06/23 12:34:36;;;;;;;17.75;4.53;;;;;;;;;;6163970;23;20130;-82
2022/06/23 12:37:03;;;;;;;9.63;3.92;;;;;;;;;;6137930;23;20804;-85
2022/06/23 12:39:36;;;;;;;14.15;3.92;;;;;;;;;;6163530;23;20077;-83
2022/06/23 12:42:18;;;;;;;12.20;4.10;;;;;;;;;;6163901;23;20022;-83
2022/06/23 12:45:03;;;;;;;19.95;4.43;;;;;;;;;;6162683;23;20018;-82
2022/06/23 12:47:50;;;;;;;16.35;4.57;;;;;;;;;;6136027;23;20082;-83
2022/06/23 12:50:36;;;;;;;12.73;3.95;;;;;;;;;;6137773;23;20073;-83
2022/06/23 12:53:14;;;;;;;13.38;3.63;;;;;;;;;;6136905;23;20847;-83
2022/06/23 12:55:51;;;;;;;16.15;4.10;;;;;;;;;;6163168;23;20054;-83
2022/06/23 12:58:18;;;;;;;16.02;4.00;;;;;;;;;;6135639;23;20010;-83
2022/06/23 13:00:51;;;;;;;8.05;3.50;;;;;;;;;;6139076;23;20018;-82
2022/06/23 13:03:24;;;;;;;9.65;3.35;;;;;;;;;;6139943;23;20022;-83
2022/06/23 13:06:09;;;;;;;13.27;4.15;;;;;;;;;;6165972;23;20021;-83
2022/06/23 13:08:39;;;;;;;10.15;3.25;;;;;;;;;;6168138;23;20046;-83
2022/06/23 13:11:13;;;;;;;14.27;3.38;;;;;;;;;;6141534;23;20030;-84
2022/06/23 13:13:49;;;;;;;15.77;3.63;;;;;;;;;;6166123;23;20018;-83
2022/06/23 13:16:25;;;;;;;11.82;3.17;;;;;;;;;;6140252;23;20097;-83
2022/06/23 13:19:07;;;;;;;9.35;2.75;;;;;;;;;;6138115;23;20030;-84
2022/06/23 13:21:37;;;;;;;10.88;3.05;;;;;;;;;;6140574;23;20025;-84
2022/06/23 13:24:10;;;;;;;11.85;3.03;;;;;;;;;;6139388;23;20652;-83
2022/06/23 13:26:47;;;;;;;12.52;2.95;;;;;;;;;;6140897;23;20018;-83
2022/06/23 13:29:14;;;;;;;19.25;3.47;;;;;;;;;;6165012;23;20025;-84
2022/06/23 13:32:00;;;;;;;25.23;3.15;;;;;;;;;;6141895;23;20014;-83
2022/06/23 13:34:36;;;;;;;16.20;3.53;;;;;;;;;;6141463;23;20124;-83
2022/06/23 13:37:17;;;;;;;10.25;3.28;;;;;;;;;;6164449;23;20018;-83
2022/06/23 13:39:51;;;;;;;10.77;3.50;;;;;;;;;;6167283;23;20109;-84
2022/06/23 13:42:26;;;;;;;12.38;3.25;;;;;;;;;;6166361;23;20226;-83
2022/06/23 13:44:57;;;;;;;16.65;3.67;;;;;;;;;;6141378;23;20034;-84
2022/06/23 13:47:44;;;;;;;9.27;2.78;;;;;;;;;;6139968;23;20039;-83
2022/06/23 13:50:12;;;;;;;13.10;3.40;;;;;;;;;;6082633;23;20452;-84
2022/06/23 13:52:39;;;;;;;11.80;3.40;;;;;;;;;;6139787;23;20025;-83
2022/06/23 13:55:16;;;;;;;12.15;3.15;;;;;;;;;;6140516;23;20020;-83
2022/06/23 13:57:50;;;;;;;9.55;3.28;;;;;;;;;;6165491;23;20020;-83
2022/06/23 14:00:23;;;;;;;9.20;3.30;;;;;;;;;;6140423;23;20018;-83
2022/06/23 14:03:07;;;;;;;6.63;2.70;;;;;;;;;;6171076;23;20014;-82
2022/06/23 14:05:54;;;;;;;19.48;3.35;;;;;;;;;;6154013;23;19998;-83
2022/06/23 14:08:25;;;;;;;11.43;3.33;;;;;;;;;;6175440;23;20022;-83
2022/06/23 14:10:56;;;;;;;11.32;3.00;;;;;;;;;;6176938;23;20025;-81
2022/06/23 14:13:49;;;;;;;8.25;3.05;;;;;;;;;;6178252;23;20073;-82
2022/06/23 14:16:20;;;;;;;10.43;3.40;;;;;;;;;;6172128;23;20070;-83
2022/06/23 14:18:54;;;;;;;9.68;3.20;;;;;;;;;;6151178;23;20017;-81
2022/06/23 14:21:30;;;;;;;11.88;3.17;;;;;;;;;;6154216;23;20070;-81
2022/06/23 14:24:05;;;;;;;10.57;3.38;;;;;;;;;;6175135;23;20018;-81
2022/06/23 14:26:40;;;;;;;10.52;3.35;;;;;;;;;;6152390;23;20034;-81
2022/06/23 14:29:14;;;;;;;8.25;2.92;;;;;;;;;;6180181;23;20076;-81
2022/06/23 14:31:51;;;;;;;14.30;3.47;;;;;;;;;;6155019;23;20014;-81
2022/06/23 14:34:18;;;;;;;12.23;3.05;;;;;;;;;;6180438;23;20017;-82
2022/06/23 14:37:04;;;;;;;9.63;3.05;;;;;;;;;;6155361;23;20038;-81
2022/06/23 14:39:44;;;;;;;8.63;3.15;;;;;;;;;;6154972;23;20025;-82
2022/06/23 14:42:20;;;;;;;8.23;2.88;;;;;;;;;;6154170;23;20006;-82
2022/06/23 14:45:03;;;;;;;10.50;3.40;;;;;;;;;;6153452;23;20014;-81
2022/06/23 14:47:50;;;;;;;11.07;3.20;;;;;;;;;;6180281;23;20022;-82
2022/06/23 14:50:18;;;;;;;11.60;2.97;;;;;;;;;;6155316;23;20014;-84
2022/06/23 14:52:52;;;;;;;10.23;2.72;;;;;;;;;;6156848;23;20526;-82
2022/06/23 14:55:38;;;;;;;7.65;2.95;;;;;;;;;;6157011;23;20636;-83
2022/06/23 14:58:12;;;;;;;8.88;3.03;;;;;;;;;;6157780;23;20002;-83
2022/06/23 15:00:48;;;;;;;6.60;3.00;;;;;;;;;;6152733;23;20047;-83
2022/06/23 15:03:25;;;;;;;11.45;2.70;;;;;;;;;;6152535;23;20079;-83
2022/06/23 15:06:04;;;;;;;10.93;3.13;;;;;;;;;;6172460;23;20345;-82
2022/06/23 15:08:38;;;;;;;6.88;2.80;;;;;;;;;;6148309;23;20022;-82
2022/06/23 15:11:13;;;;;;;9.13;2.58;;;;;;;;;;6177001;23;20014;-82
2022/06/23 15:13:40;;;;;;;10.40;2.80;;;;;;;;;;6150576;23;20026;-81
2022/06/23 15:16:28;;;;;;;8.90;3.05;;;;;;;;;;6151468;23;20046;-82
2022/06/23 15:19:02;;;;;;;8.77;3.05;;;;;;;;;;6177278;23;20037;-82
2022/06/23 15:24:45;;;;;;;13.13;3.05;;;;;;;;;;6085266;23;20044;-81
2022/06/23 15:27:32;;;;;;;10.40;3.13;;;;;;;;;;6062227;23;20896;-82
2022/06/23 15:30:07;;;;;;;10.82;3.42;;;;;;;;;;6064680;23;20040;-84
2022/06/23 15:32:41;;;;;;;9.02;3.10;;;;;;;;;;6064314;23;20023;-80
2022/06/23 15:35:14;;;;;;;9.27;2.92;;;;;;;;;;6089896;23;20026;-82
2022/06/23 15:37:47;;;;;;;7.50;2.88;;;;;;;;;;6067322;23;20023;-82